Time;durP1;ratioP1;P1;durP2;ratioP2;P2;SDS_P1;SDS_P2;PMS_P1;PMS_P2;Temp;Humidity;BMP_temperature;BMP_pressure;BME280_temperature;BME280_humidity;BME280_pressure;Samples;Min_cycle;Max_cycle;Signal;HPM_P1;HPM_P2
2023/02/15 00:01:51;;;;;;;23.40;12.10;;;1.90;82.30;;;;;;5041977;28;20317;-71
2023/02/15 00:04:20;;;;;;;21.27;9.90;;;1.90;82.30;;;;;;5054020;28;20200;-71
2023/02/15 00:06:48;;;;;;;12.48;9.38;;;1.90;82.40;;;;;;5045985;28;20217;-71
2023/02/15 00:09:17;;;;;;;14.57;10.93;;;1.80;82.30;;;;;;5034265;28;20200;-71
2023/02/15 00:11:49;;;;;;;16.60;10.18;;;1.80;82.40;;;;;;5041213;28;20248;-71
2023/02/15 00:14:19;;;;;;;15.88;9.85;;;1.80;82.60;;;;;;5054268;28;20245;-71
2023/02/15 00:16:48;;;;;;;15.02;9.63;;;1.80;82.40;;;;;;5052351;28;20620;-71
2023/02/15 00:19:17;;;;;;;15.93;9.18;;;1.80;82.60;;;;;;5052989;28;20201;-72
2023/02/15 00:21:45;;;;;;;15.90;9.55;;;1.80;82.40;;;;;;5044977;28;20197;-71
2023/02/15 00:24:15;;;;;;;27.15;9.55;;;1.80;81.90;;;;;;5033947;28;20202;-71
2023/02/15 00:26:44;;;;;;;21.02;9.75;;;1.80;82.10;;;;;;5049627;28;20228;-71
2023/02/15 00:29:13;;;;;;;13.35;9.95;;;1.80;81.40;;;;;;5053617;28;20252;-70
2023/02/15 00:31:40;;;;;;;14.20;8.55;;;1.70;81.90;;;;;;5037590;28;20248;-70
2023/02/15 00:34:11;;;;;;;16.77;9.43;;;1.60;82.70;;;;;;5033836;28;20257;-71
2023/02/15 00:36:39;;;;;;;11.70;8.93;;;1.60;83.10;;;;;;5047982;28;20187;-69
2023/02/15 00:39:06;;;;;;;16.20;10.13;;;1.60;83.20;;;;;;5053912;28;20251;-71
2023/02/15 00:41:34;;;;;;;14.63;9.00;;;1.60;83.50;;;;;;5039627;28;20221;-71
2023/02/15 00:44:03;;;;;;;17.80;10.07;;;1.60;84.10;;;;;;5033999;28;20199;-71
2023/02/15 00:46:31;;;;;;;19.02;9.57;;;1.60;84.40;;;;;;5045549;28;20225;-71
2023/02/15 00:48:58;;;;;;;14.20;9.43;;;1.60;84.60;;;;;;5050345;28;20198;-71
2023/02/15 00:51:26;;;;;;;11.90;7.88;;;1.50;84.30;;;;;;5033755;28;20201;-71
2023/02/15 00:53:53;;;;;;;18.40;10.13;;;1.60;84.30;;;;;;5034298;28;20198;-71
2023/02/15 00:56:21;;;;;;;27.98;9.50;;;1.60;84.30;;;;;;5040713;28;20190;-70
2023/02/15 00:58:48;;;;;;;19.88;11.02;;;1.60;83.90;;;;;;5033387;28;20202;-70
2023/02/15 01:01:18;;;;;;;17.50;10.23;;;1.60;83.90;;;;;;5033386;28;20223;-71
2023/02/15 01:03:46;;;;;;;19.40;9.48;;;1.50;84.40;;;;;;5033479;28;20190;-70
2023/02/15 01:06:15;;;;;;;19.15;10.18;;;1.50;85.20;;;;;;5033098;28;20257;-70
2023/02/15 01:08:45;;;;;;;13.25;9.13;;;1.50;85.50;;;;;;5050865;28;20324;-71
2023/02/15 01:11:14;;;;;;;15.05;10.02;;;1.50;85.90;;;;;;5052917;28;20193;-71
2023/02/15 01:13:41;;;;;;;17.42;9.68;;;1.40;85.80;;;;;;5034868;28;20550;-71
2023/02/15 01:16:09;;;;;;;16.08;9.02;;;1.40;85.50;;;;;;5039907;28;20247;-71
2023/02/15 01:18:38;;;;;;;18.75;9.00;;;1.40;84.70;;;;;;5050272;28;20201;-71
2023/02/15 01:21:13;;;;;;;15.90;9.60;;;1.30;84.70;;;;;;5048453;28;20193;-71
2023/02/15 01:23:41;;;;;;;20.27;9.88;;;1.30;84.20;;;;;;5050190;28;20292;-71
2023/02/15 01:26:08;;;;;;;12.32;8.10;;;1.30;84.90;;;;;;5032759;28;20704;-71
2023/02/15 01:28:35;;;;;;;12.95;8.52;;;1.30;84.70;;;;;;5034019;28;20199;-70
2023/02/15 01:31:06;;;;;;;12.02;8.70;;;1.20;84.60;;;;;;5052371;28;20193;-71
2023/02/15 01:33:34;;;;;;;14.45;8.77;;;1.20;85.00;;;;;;5051022;28;20216;-69
2023/02/15 01:36:04;;;;;;;17.60;10.23;;;1.20;86.10;;;;;;5032134;28;20198;-71
2023/02/15 01:38:31;;;;;;;15.07;8.75;;;1.20;86.80;;;;;;5033568;28;20612;-71
2023/02/15 01:41:19;;;;;;;20.35;9.20;;;1.20;86.60;;;;;;5052634;28;20664;-71
2023/02/15 01:43:48;;;;;;;13.07;8.75;;;1.20;86.60;;;;;;5049606;28;20203;-71
2023/02/15 01:46:18;;;;;;;21.70;9.50;;;1.20;86.90;;;;;;5032235;28;20221;-70
2023/02/15 01:48:48;;;;;;;18.20;9.05;;;1.20;86.20;;;;;;5034939;28;20237;-70
2023/02/15 01:51:22;;;;;;;11.13;8.23;;;1.10;86.30;;;;;;5052210;28;20196;-71
2023/02/15 01:53:52;;;;;;;12.30;8.10;;;1.10;86.70;;;;;;5049390;28;20201;-70
2023/02/15 01:56:22;;;;;;;12.10;8.15;;;1.10;85.90;;;;;;5032356;28;20641;-71
2023/02/15 01:58:52;;;;;;;14.07;7.60;;;1.10;85.40;;;;;;5034810;28;20193;-73
2023/02/15 02:01:20;;;;;;;11.82;7.93;;;1.20;84.50;;;;;;5051596;28;20220;-70
2023/02/15 02:03:56;;;;;;;10.75;7.15;;;1.20;83.60;;;;;;5049338;28;20267;-70
2023/02/15 02:06:26;;;;;;;14.75;8.32;;;1.10;83.50;;;;;;5032556;28;20263;-71
2023/02/15 02:08:54;;;;;;;13.88;7.38;;;1.10;83.60;;;;;;5035015;28;20213;-70
2023/02/15 02:11:22;;;;;;;17.17;8.35;;;1.20;83.20;;;;;;5051877;28;20201;-70
2023/02/15 02:13:51;;;;;;;18.20;9.35;;;1.10;83.20;;;;;;5049370;28;20196;-70
2023/02/15 02:16:24;;;;;;;13.45;10.85;;;1.10;83.80;;;;;;5032714;28;20245;-71
2023/02/15 02:19:11;;;;;;;13.35;9.13;;;1.00;84.50;;;;;;5034842;28;20197;-71
2023/02/15 02:22:17;;;;;;;17.92;9.82;;;1.00;84.60;;;;;;5052179;28;20559;-70
2023/02/15 02:25:13;;;;;;;11.73;7.97;;;1.00;84.90;;;;;;4999876;28;20190;-70
2023/02/15 02:27:44;;;;;;;11.30;6.65;;;1.00;84.50;;;;;;5030300;28;20254;-71
2023/02/15 02:30:35;;;;;;;14.40;8.80;;;0.80;83.90;;;;;;5042831;28;20197;-70
2023/02/15 02:33:30;;;;;;;14.93;8.20;;;0.80;85.00;;;;;;5031998;28;20197;-71
2023/02/15 02:36:06;;;;;;;16.83;9.27;;;0.70;85.30;;;;;;5037673;28;20199;-71
2023/02/15 02:38:43;;;;;;;15.27;7.50;;;0.70;85.00;;;;;;5051721;28;20200;-70
2023/02/15 02:41:18;;;;;;;12.15;9.25;;;0.70;85.20;;;;;;5021331;28;20189;-70
2023/02/15 02:43:52;;;;;;;11.20;7.85;;;0.60;85.40;;;;;;5034108;28;20242;-72
2023/02/15 02:46:25;;;;;;;15.60;8.13;;;0.60;85.20;;;;;;5055640;28;20269;-70
2023/02/15 02:48:54;;;;;;;12.38;8.57;;;0.60;85.20;;;;;;5054766;28;20643;-72
2023/02/15 02:51:22;;;;;;;11.65;8.52;;;0.60;85.50;;;;;;5035561;28;20229;-70
2023/02/15 02:53:52;;;;;;;15.55;8.38;;;0.60;85.00;;;;;;5035926;28;20205;-76
2023/02/15 02:56:24;;;;;;;11.18;8.13;;;0.50;85.20;;;;;;5035486;28;20267;-71
2023/02/15 02:58:56;;;;;;;11.48;8.35;;;0.60;85.90;;;;;;5035540;28;20243;-71
2023/02/15 03:01:28;;;;;;;13.60;7.95;;;0.50;86.50;;;;;;5015560;28;20261;-70
2023/02/15 03:04:01;;;;;;;11.60;8.00;;;0.60;86.70;;;;;;5045340;28;20197;-71
2023/02/15 03:06:32;;;;;;;8.77;6.35;;;0.60;85.80;;;;;;5040528;28;20304;-71
2023/02/15 03:09:14;;;;;;;8.32;7.20;;;0.70;85.70;;;;;;5035387;28;20193;-70
2023/02/15 03:11:44;;;;;;;13.50;7.25;;;0.60;84.40;;;;;;5050434;28;20558;-70
2023/02/15 03:14:13;;;;;;;14.57;8.52;;;0.60;84.30;;;;;;5035017;28;20220;-72
2023/02/15 03:16:43;;;;;;;12.05;7.90;;;0.60;84.10;;;;;;5049788;28;20184;-71
2023/02/15 03:19:16;;;;;;;9.93;7.55;;;0.50;83.70;;;;;;5041041;28;20250;-71
2023/02/15 03:21:57;;;;;;;11.13;7.93;;;0.60;83.50;;;;;;5035534;28;20196;-71
2023/02/15 03:24:29;;;;;;;10.02;7.10;;;0.40;83.10;;;;;;5015555;28;20204;-73
2023/02/15 03:26:58;;;;;;;13.98;7.55;;;0.40;84.40;;;;;;5016111;28;20224;-71
2023/02/15 03:29:28;;;;;;;9.90;6.90;;;0.40;84.10;;;;;;5055186;28;20232;-72
2023/02/15 03:32:00;;;;;;;20.05;8.70;;;0.40;84.70;;;;;;5054183;28;20595;-69
2023/02/15 03:34:29;;;;;;;9.80;7.05;;;0.40;84.50;;;;;;5035388;28;20234;-71
2023/02/15 03:37:04;;;;;;;9.85;7.03;;;0.30;84.40;;;;;;5034879;28;20197;-72
2023/02/15 03:39:35;;;;;;;12.63;7.32;;;0.30;84.60;;;;;;5015362;28;20199;-70
2023/02/15 03:42:11;;;;;;;13.18;7.93;;;0.40;84.50;;;;;;5016960;28;20238;-71
2023/02/15 03:44:50;;;;;;;14.57;8.45;;;0.30;84.50;;;;;;5054788;28;20192;-71
2023/02/15 03:47:21;;;;;;;11.15;8.07;;;0.30;84.70;;;;;;5051476;28;20305;-71
2023/02/15 03:49:56;;;;;;;13.15;6.60;;;0.30;85.10;;;;;;5034870;28;20204;-69
2023/02/15 03:52:26;;;;;;;13.05;8.23;;;0.30;84.50;;;;;;5037813;28;20191;-70
2023/02/15 03:54:54;;;;;;;14.13;8.60;;;0.20;84.40;;;;;;5054646;28;20284;-71
2023/02/15 04:03:21;;;;;;;10.45;8.30;;;0.10;85.20;;;;;;5041347;28;20551;-70
2023/02/15 04:05:49;;;;;;;12.73;7.78;;;0.00;85.20;;;;;;5053750;28;20236;-76
2023/02/15 04:08:17;;;;;;;10.20;7.13;;;0.00;85.20;;;;;;5024377;28;20220;-70
2023/02/15 04:10:51;;;;;;;11.85;8.25;;;0.00;85.20;;;;;;5046976;28;20196;-70
2023/02/15 04:13:19;;;;;;;11.27;7.00;;;-0.10;84.90;;;;;;5054316;28;20665;-72
2023/02/15 04:16:03;;;;;;;12.77;7.70;;;-0.10;84.30;;;;;;5040487;28;20216;-70
2023/02/15 04:26:48;;;;;;;8.15;6.55;;;-0.30;83.60;;;;;;5052583;28;20214;-70
2023/02/15 04:29:16;;;;;;;10.73;6.72;;;-0.30;82.50;;;;;;5037024;28;20196;-70
2023/02/15 04:31:43;;;;;;;10.65;8.18;;;-0.40;81.90;;;;;;5035765;28;20241;-70
2023/02/15 04:34:11;;;;;;;12.07;6.97;;;-0.40;82.10;;;;;;5048538;28;20355;-70
2023/02/15 04:36:40;;;;;;;13.50;7.72;;;-0.50;82.30;;;;;;5053669;28;20226;-70
2023/02/15 04:39:07;;;;;;;8.98;7.18;;;-0.50;82.00;;;;;;5038986;28;20187;-70
2023/02/15 04:41:35;;;;;;;9.00;7.20;;;-0.40;81.90;;;;;;5033623;28;20237;-70
2023/02/15 04:44:03;;;;;;;12.93;7.38;;;-0.50;81.40;;;;;;5046428;28;20226;-73
2023/02/15 04:46:30;;;;;;;14.77;8.85;;;-0.40;81.70;;;;;;5053411;28;20202;-70
2023/02/15 04:48:58;;;;;;;11.50;9.50;;;-0.50;81.00;;;;;;5041562;28;20191;-70
2023/02/15 04:51:25;;;;;;;12.43;8.30;;;-0.50;81.00;;;;;;5033525;28;20645;-70
2023/02/15 04:53:54;;;;;;;11.30;7.93;;;-0.60;81.80;;;;;;5043500;28;20703;-70
2023/02/15 04:56:22;;;;;;;14.00;8.68;;;-0.60;82.10;;;;;;5044386;28;20190;-70
2023/02/15 04:58:49;;;;;;;12.35;8.57;;;-0.60;82.60;;;;;;5033040;28;20196;-70
2023/02/15 05:01:16;;;;;;;13.20;8.52;;;-0.50;81.90;;;;;;5047852;28;20249;-72
2023/02/15 05:03:43;;;;;;;10.85;7.88;;;-0.50;81.30;;;;;;5053026;28;20282;-70
2023/02/15 05:06:11;;;;;;;8.70;7.03;;;-0.60;81.50;;;;;;5037870;28;20647;-71
2023/02/15 05:08:38;;;;;;;10.60;7.60;;;-0.50;81.90;;;;;;5033179;28;20632;-71
2023/02/15 05:11:06;;;;;;;9.98;7.60;;;-0.50;81.60;;;;;;5045588;28;20597;-70
2023/02/15 05:13:34;;;;;;;8.10;6.72;;;-0.50;81.40;;;;;;5052975;28;20186;-70
2023/02/15 05:16:01;;;;;;;8.98;7.00;;;-0.50;82.10;;;;;;5051020;28;20234;-70
2023/02/15 05:18:28;;;;;;;9.23;6.90;;;-0.60;80.50;;;;;;5052907;28;20562;-70
2023/02/15 05:20:56;;;;;;;11.52;8.30;;;-0.60;80.10;;;;;;5042382;28;20196;-70
2023/02/15 05:23:24;;;;;;;9.02;7.25;;;-0.60;80.10;;;;;;5032992;28;20598;-72
2023/02/15 05:28:38;;;;;;;10.40;6.65;;;-0.60;79.90;;;;;;5052776;28;20305;-71
2023/02/15 05:31:07;;;;;;;7.68;5.43;;;-0.60;79.60;;;;;;5041853;28;20229;-70
2023/02/15 05:33:35;;;;;;;14.05;7.22;;;-0.70;79.50;;;;;;5032568;28;20585;-76
2023/02/15 05:36:03;;;;;;;9.90;6.68;;;-0.70;79.40;;;;;;5043060;28;20642;-70
2023/02/15 05:38:31;;;;;;;9.27;6.82;;;-0.70;79.40;;;;;;5053028;28;20193;-71
2023/02/15 05:40:58;;;;;;;11.50;7.80;;;-0.70;79.10;;;;;;5043626;28;20195;-70
2023/02/15 05:43:26;;;;;;;16.52;7.03;;;-0.70;79.10;;;;;;5033002;28;20246;-71
2023/02/15 05:45:55;;;;;;;13.38;8.88;;;-0.80;79.50;;;;;;5040905;28;20191;-71
2023/02/15 05:48:24;;;;;;;15.20;10.20;;;-0.80;80.30;;;;;;5052206;28;20232;-70
2023/02/15 05:50:59;;;;;;;16.45;8.88;;;-0.80;80.10;;;;;;5047621;28;20832;-70
2023/02/15 05:53:26;;;;;;;12.15;9.80;;;-0.80;80.10;;;;;;5032598;28;20208;-70
2023/02/15 05:55:58;;;;;;;15.35;9.77;;;-0.80;79.80;;;;;;5032764;28;20703;-70
2023/02/15 05:58:26;;;;;;;18.77;12.65;;;-0.90;79.50;;;;;;5031971;28;20215;-70
2023/02/15 06:00:55;;;;;;;14.88;9.35;;;-0.90;78.80;;;;;;5031660;28;20724;-71
2023/02/15 06:03:23;;;;;;;18.58;10.43;;;-1.00;79.40;;;;;;5032118;28;20188;-72
2023/02/15 06:05:50;;;;;;;19.27;11.52;;;-1.10;79.10;;;;;;5031933;28;20248;-71
2023/02/15 06:08:17;;;;;;;17.77;10.75;;;-1.10;79.00;;;;;;5032478;28;20273;-70
2023/02/15 06:10:46;;;;;;;18.77;10.80;;;-1.10;79.40;;;;;;5034151;28;20222;-70
2023/02/15 06:13:13;;;;;;;27.70;13.55;;;-1.10;79.30;;;;;;5038166;28;20191;-70
2023/02/15 06:15:42;;;;;;;33.70;16.70;;;-1.20;78.00;;;;;;5032159;28;20373;-71
2023/02/15 06:18:10;;;;;;;32.25;17.73;;;-1.40;78.20;;;;;;5050675;28;20195;-70
2023/02/15 06:20:37;;;;;;;26.45;15.88;;;-1.50;78.50;;;;;;5036400;28;20194;-76
2023/02/15 06:23:05;;;;;;;21.98;12.90;;;-1.60;79.40;;;;;;5044633;28;20201;-71
2023/02/15 06:25:32;;;;;;;23.58;13.63;;;-1.60;79.70;;;;;;5032883;28;20191;-71
2023/02/15 06:27:59;;;;;;;19.52;12.30;;;-1.50;79.80;;;;;;5039112;28;20572;-72
2023/02/15 06:30:26;;;;;;;24.27;13.60;;;-1.50;79.00;;;;;;5026345;28;20281;-71
2023/02/15 06:32:53;;;;;;;22.67;14.00;;;-1.60;79.30;;;;;;5030427;28;20198;-70
2023/02/15 06:35:22;;;;;;;22.48;13.90;;;-1.60;79.40;;;;;;5030649;28;20632;-72
2023/02/15 06:37:49;;;;;;;27.35;14.32;;;-1.60;79.00;;;;;;5030430;28;20257;-73
2023/02/15 06:40:16;;;;;;;19.20;13.05;;;-1.60;79.00;;;;;;5031634;28;20190;-71
2023/02/15 06:42:43;;;;;;;20.65;11.05;;;-1.60;78.80;;;;;;5030433;28;20233;-70
2023/02/15 06:45:15;;;;;;;19.15;10.85;;;-1.60;79.30;;;;;;5025803;28;20297;-71
2023/02/15 06:47:42;;;;;;;17.15;10.77;;;-1.60;79.10;;;;;;5045047;28;20230;-71
2023/02/15 06:50:10;;;;;;;19.88;10.93;;;-1.50;79.50;;;;;;5050392;28;20237;-70
2023/02/15 06:52:38;;;;;;;20.17;10.98;;;-1.40;79.60;;;;;;5056145;28;20244;-71
2023/02/15 06:55:06;;;;;;;13.75;10.02;;;-1.40;80.10;;;;;;5046066;28;20253;-76
2023/02/15 06:57:33;;;;;;;15.02;9.30;;;-1.20;80.00;;;;;;5049184;28;20222;-72
2023/02/15 07:00:01;;;;;;;19.08;12.13;;;-1.00;80.20;;;;;;5049970;28;20241;-73
2023/02/15 07:02:28;;;;;;;15.15;10.52;;;-0.70;78.40;;;;;;5052267;28;20221;-71
2023/02/15 07:04:57;;;;;;;16.58;9.93;;;-0.70;78.50;;;;;;5053213;28;20222;-73
2023/02/15 07:07:25;;;;;;;13.82;11.82;;;-0.50;78.10;;;;;;5045480;28;20715;-70
2023/02/15 07:09:53;;;;;;;11.45;9.95;;;-0.20;77.00;;;;;;5051777;28;20607;-71
2023/02/15 07:15:08;;;;;;;13.25;10.93;;;0.20;73.70;;;;;;5050780;28;20252;-71
2023/02/15 07:17:36;;;;;;;14.48;9.68;;;0.40;73.30;;;;;;5072072;28;20190;-70
2023/02/15 07:20:05;;;;;;;14.48;9.50;;;0.70;73.70;;;;;;5070781;28;20284;-71
2023/02/15 07:22:33;;;;;;;11.10;8.63;;;0.90;73.20;;;;;;5051580;28;20279;-71
2023/02/15 07:25:02;;;;;;;8.77;7.85;;;1.30;71.90;;;;;;5053223;28;20196;-72
2023/02/15 07:27:29;;;;;;;11.10;7.90;;;1.60;70.30;;;;;;5064005;28;20290;-71
2023/02/15 07:29:56;;;;;;;8.85;7.40;;;1.90;68.60;;;;;;5054847;28;20201;-71
2023/02/15 07:32:23;;;;;;;9.98;8.10;;;2.20;67.80;;;;;;5056120;28;20271;-71
2023/02/15 07:34:49;;;;;;;10.63;9.00;;;2.60;66.90;;;;;;5055631;28;20289;-71
2023/02/15 07:37:16;;;;;;;11.65;8.02;;;2.90;66.70;;;;;;5055697;28;20284;-71
2023/02/15 07:39:43;;;;;;;10.70;8.50;;;3.30;66.10;;;;;;5054986;28;20233;-72
2023/02/15 07:42:12;;;;;;;9.65;7.70;;;3.70;64.60;;;;;;5055650;28;20281;-71
2023/02/15 07:44:39;;;;;;;14.77;11.10;;;4.10;62.20;;;;;;5055538;28;20225;-71
2023/02/15 07:47:06;;;;;;;10.75;8.77;;;4.50;61.00;;;;;;5054863;28;20222;-74
2023/02/15 07:49:33;;;;;;;14.05;10.88;;;4.90;59.40;;;;;;5054723;28;20304;-71
2023/02/15 07:52:01;;;;;;;13.27;10.60;;;5.20;58.50;;;;;;5055341;28;20709;-71
2023/02/15 07:54:28;;;;;;;12.73;9.63;;;5.70;57.10;;;;;;5055360;28;20274;-71
2023/02/15 07:56:55;;;;;;;15.40;9.60;;;6.10;57.00;;;;;;5054879;28;20677;-71
2023/02/15 07:59:24;;;;;;;13.98;11.00;;;6.40;55.20;;;;;;5055325;28;20686;-71
2023/02/15 08:01:52;;;;;;;14.30;11.07;;;6.80;54.40;;;;;;5055074;28;20241;-71
2023/02/15 08:04:19;;;;;;;13.15;10.75;;;7.10;53.80;;;;;;5055176;28;20199;-71
2023/02/15 08:06:46;;;;;;;12.57;10.73;;;7.50;53.00;;;;;;5055290;28;20720;-71
2023/02/15 08:09:13;;;;;;;11.68;10.48;;;7.90;52.40;;;;;;5055236;28;20257;-72
2023/02/15 08:11:41;;;;;;;13.02;11.40;;;8.20;51.60;;;;;;5054800;28;20238;-71
2023/02/15 08:14:15;;;;;;;14.68;11.52;;;8.60;49.90;;;;;;5054501;28;20197;-72
2023/02/15 08:16:45;;;;;;;13.48;10.70;;;8.90;48.40;;;;;;5054642;28;20639;-71
2023/02/15 08:19:14;;;;;;;13.60;11.20;;;9.20;48.20;;;;;;5053078;28;20727;-72
2023/02/15 08:21:43;;;;;;;12.80;11.43;;;9.70;47.00;;;;;;5055985;28;20277;-72
2023/02/15 08:24:11;;;;;;;16.48;13.15;;;10.00;45.80;;;;;;5057154;28;20202;-71
2023/02/15 08:26:40;;;;;;;15.98;11.63;;;10.30;44.90;;;;;;5054406;28;20252;-71
2023/02/15 08:29:08;;;;;;;13.75;11.48;;;10.60;43.50;;;;;;5055446;28;20245;-71
2023/02/15 08:31:37;;;;;;;14.35;10.65;;;10.70;43.70;;;;;;5053328;28;20644;-72
2023/02/15 08:34:06;;;;;;;17.77;11.43;;;11.00;43.30;;;;;;5053288;28;20202;-72
2023/02/15 08:36:33;;;;;;;12.70;11.40;;;11.40;43.00;;;;;;5048864;28;20571;-72
2023/02/15 08:39:04;;;;;;;18.85;11.00;;;11.80;42.10;;;;;;5049311;28;20332;-75
2023/02/15 08:41:33;;;;;;;17.20;11.63;;;12.20;41.30;;;;;;5051796;28;20259;-72
2023/02/15 08:44:02;;;;;;;14.80;11.50;;;12.50;40.70;;;;;;5055933;28;20193;-72
2023/02/15 08:46:31;;;;;;;12.70;11.40;;;12.80;39.90;;;;;;5058095;28;20285;-71
2023/02/15 08:48:59;;;;;;;16.55;11.18;;;13.10;39.50;;;;;;5068415;28;20280;-72
2023/02/15 08:51:29;;;;;;;14.13;10.50;;;13.50;39.20;;;;;;5068311;28;20245;-71
2023/02/15 08:53:57;;;;;;;13.68;12.15;;;13.80;38.30;;;;;;5068061;28;20307;-71
2023/02/15 08:56:27;;;;;;;13.43;10.73;;;14.10;38.10;;;;;;5061133;28;20194;-71
2023/02/15 08:58:55;;;;;;;14.75;11.73;;;14.40;36.60;;;;;;5067875;28;20247;-71
2023/02/15 09:01:23;;;;;;;18.15;11.82;;;14.50;37.60;;;;;;5062579;28;20236;-70
2023/02/15 09:03:53;;;;;;;12.95;11.43;;;14.90;36.70;;;;;;5065076;28;20190;-71
2023/02/15 09:06:21;;;;;;;13.45;11.52;;;15.30;36.20;;;;;;5062620;28;20204;-71
2023/02/15 09:08:49;;;;;;;20.00;11.03;;;15.60;35.60;;;;;;5058283;28;20222;-71
2023/02/15 09:11:23;;;;;;;15.13;12.83;;;15.70;35.20;;;;;;5066133;28;20467;-71
2023/02/15 09:13:53;;;;;;;15.27;10.80;;;16.10;34.90;;;;;;5065632;28;20440;-71
2023/02/15 09:16:21;;;;;;;15.43;10.83;;;16.40;34.80;;;;;;5061990;28;20459;-71
2023/02/15 09:18:53;;;;;;;15.60;11.00;;;16.70;34.30;;;;;;5062328;28;20523;-71
2023/02/15 09:21:22;;;;;;;16.03;11.73;;;16.90;33.30;;;;;;5065114;28;20493;-71
2023/02/15 09:23:51;;;;;;;20.40;12.77;;;17.20;33.70;;;;;;5062115;28;20523;-70
2023/02/15 09:26:20;;;;;;;24.17;13.70;;;17.40;32.80;;;;;;5061355;28;20527;-71
2023/02/15 09:28:49;;;;;;;13.70;12.30;;;17.60;33.10;;;;;;5064049;28;20515;-71
2023/02/15 09:31:18;;;;;;;19.50;12.80;;;17.80;32.60;;;;;;5061472;28;20789;-71
2023/02/15 09:33:47;;;;;;;15.67;11.37;;;18.10;32.20;;;;;;5056777;28;20515;-71
2023/02/15 09:36:17;;;;;;;14.73;11.73;;;18.30;31.80;;;;;;5056451;28;20492;-72
2023/02/15 09:38:45;;;;;;;14.03;10.60;;;18.60;32.10;;;;;;5059191;28;20953;-72
2023/02/15 09:41:56;;;;;;;14.90;13.00;;;18.80;31.90;;;;;;5063454;28;20455;-72
2023/02/15 09:44:33;;;;;;;12.83;11.53;;;18.90;31.50;;;;;;5011678;28;20523;-71
2023/02/15 09:47:19;;;;;;;13.37;11.47;;;19.00;30.50;;;;;;5059162;28;20472;-72
2023/02/15 09:49:53;;;;;;;13.00;11.70;;;19.40;31.30;;;;;;5059666;28;20909;-71
2023/02/15 09:52:35;;;;;;;15.40;11.50;;;19.60;30.70;;;;;;5058813;28;20534;-71
2023/02/15 09:55:18;;;;;;;17.10;12.50;;;19.90;30.40;;;;;;5057174;28;20559;-72
2023/02/15 09:57:57;;;;;;;14.57;10.63;;;20.00;30.60;;;;;;5057097;28;20527;-71
2023/02/15 10:00:31;;;;;;;12.97;11.63;;;20.30;30.70;;;;;;5058549;28;20499;-72
2023/02/15 10:03:12;;;;;;;13.03;11.83;;;20.50;30.40;;;;;;5058430;28;20471;-70
2023/02/15 10:05:47;;;;;;;14.27;10.07;;;20.80;30.50;;;;;;5055697;28;20449;-71
2023/02/15 10:08:41;;;;;;;13.37;11.43;;;21.10;30.50;;;;;;5057697;28;20471;-71
2023/02/15 10:14:14;;;;;;;13.83;10.37;;;21.70;29.80;;;;;;5053860;28;20424;-73
2023/02/15 10:16:49;;;;;;;12.77;11.47;;;21.80;29.40;;;;;;5052347;28;20527;-71
2023/02/15 10:19:27;;;;;;;14.00;9.87;;;22.10;29.80;;;;;;5052898;28;20478;-71
2023/02/15 10:22:03;;;;;;;12.03;9.00;;;22.30;29.50;;;;;;5051766;28;20449;-71
2023/02/15 10:24:41;;;;;;;10.10;7.70;;;22.50;28.80;;;;;;5048528;28;20547;-72
2023/02/15 10:27:13;;;;;;;12.50;9.20;;;22.70;28.70;;;;;;5050454;28;20436;-72
2023/02/15 10:29:50;;;;;;;13.40;9.20;;;22.90;29.10;;;;;;5056191;28;20475;-72
2023/02/15 10:32:24;;;;;;;12.50;8.57;;;22.90;28.20;;;;;;5065559;28;20482;-71
2023/02/15 10:34:55;;;;;;;10.77;6.87;;;23.00;27.90;;;;;;5067550;28;20433;-71
2023/02/15 10:37:47;;;;;;;9.40;7.20;;;23.10;27.40;;;;;;5064824;28;20524;-72
2023/02/15 10:40:26;;;;;;;10.17;7.07;;;23.30;27.20;;;;;;5065743;28;20444;-71
2023/02/15 10:43:11;;;;;;;7.40;6.50;;;23.50;27.10;;;;;;5066752;28;20433;-71
2023/02/15 10:45:50;;;;;;;10.03;6.23;;;23.60;27.10;;;;;;5061845;28;20444;-71
2023/02/15 10:48:32;;;;;;;9.90;6.23;;;23.60;27.50;;;;;;5061820;28;20471;-71
2023/02/15 10:51:01;;;;;;;10.20;6.70;;;23.80;27.10;;;;;;5063293;28;20523;-72
2023/02/15 10:53:59;;;;;;;11.33;8.13;;;23.90;27.50;;;;;;5061330;28;20464;-72
2023/02/15 10:56:33;;;;;;;12.03;7.40;;;24.10;27.10;;;;;;5055787;28;21041;-71
2023/02/15 10:59:24;;;;;;;14.83;9.00;;;24.40;26.70;;;;;;5060697;28;20538;-71
2023/02/15 11:01:59;;;;;;;10.57;8.87;;;24.60;26.50;;;;;;5061631;28;20464;-71
2023/02/15 11:04:47;;;;;;;16.57;12.10;;;24.70;25.70;;;;;;5047764;28;20437;-71
2023/02/15 11:07:19;;;;;;;14.13;9.17;;;24.90;26.70;;;;;;5056289;28;20486;-71
2023/02/15 11:09:50;;;;;;;11.10;9.90;;;25.20;25.70;;;;;;5056180;28;20480;-71
2023/02/15 11:12:19;;;;;;;14.47;9.70;;;25.20;25.40;;;;;;5056277;28;20487;-71
2023/02/15 11:14:53;;;;;;;10.07;8.17;;;25.30;25.10;;;;;;5055883;28;20461;-71
2023/02/15 11:17:26;;;;;;;11.57;9.00;;;25.50;25.00;;;;;;5056139;28;20440;-71
2023/02/15 11:20:02;;;;;;;14.60;8.70;;;25.60;25.00;;;;;;5056014;28;20451;-71
2023/02/15 11:22:31;;;;;;;11.27;8.93;;;25.70;24.60;;;;;;5056104;28;20440;-72
2023/02/15 11:24:59;;;;;;;11.63;8.20;;;25.80;23.80;;;;;;5055932;28;20468;-71
2023/02/15 11:27:32;;;;;;;11.73;7.90;;;25.80;23.60;;;;;;5055707;28;20472;-71
2023/02/15 11:30:09;;;;;;;8.63;7.73;;;26.00;23.50;;;;;;5055207;28;20568;-72
2023/02/15 11:32:51;;;;;;;9.57;7.23;;;26.20;23.10;;;;;;5055298;28;20466;-72
2023/02/15 11:35:25;;;;;;;8.83;6.53;;;26.30;22.90;;;;;;5055292;28;20443;-71
2023/02/15 11:37:58;;;;;;;9.30;6.07;;;26.30;23.40;;;;;;5055673;28;20494;-71
2023/02/15 11:40:28;;;;;;;10.10;7.00;;;26.40;23.40;;;;;;5055652;28;20429;-71
2023/02/15 11:42:57;;;;;;;9.23;6.80;;;26.60;22.90;;;;;;5055523;28;20473;-71
2023/02/15 11:45:28;;;;;;;11.80;7.10;;;26.80;22.30;;;;;;5055308;28;20866;-72
2023/02/15 11:47:58;;;;;;;10.40;7.50;;;26.80;22.50;;;;;;5053002;28;20449;-71
2023/02/15 11:50:32;;;;;;;8.50;6.50;;;26.80;22.40;;;;;;5054546;28;20571;-71
2023/02/15 11:53:03;;;;;;;8.37;5.73;;;26.80;22.60;;;;;;5054285;28;20432;-72
2023/02/15 11:55:33;;;;;;;8.73;6.37;;;26.90;22.10;;;;;;5050939;28;20924;-72
2023/02/15 11:58:06;;;;;;;13.60;6.17;;;27.00;22.00;;;;;;5054446;28;20447;-72
2023/02/15 12:00:36;;;;;;;10.30;6.33;;;27.10;21.80;;;;;;5054377;28;20526;-71
2023/02/15 12:03:23;;;;;;;7.80;6.33;;;27.20;21.10;;;;;;5054396;28;20437;-71
2023/02/15 12:05:57;;;;;;;8.97;5.70;;;27.20;21.30;;;;;;5055104;28;20481;-71
2023/02/15 12:08:24;;;;;;;8.13;6.10;;;27.20;21.40;;;;;;5054281;28;20891;-71
2023/02/15 12:11:01;;;;;;;11.70;6.27;;;27.20;21.40;;;;;;5054006;28;20480;-71
2023/02/15 12:13:29;;;;;;;12.23;6.63;;;27.30;21.20;;;;;;5053964;28;20473;-71
2023/02/15 12:16:00;;;;;;;5.70;5.10;;;27.30;22.10;;;;;;5053042;28;20432;-69
2023/02/15 12:18:40;;;;;;;6.07;4.00;;;27.50;20.70;;;;;;5055389;28;20440;-71
2023/02/15 12:21:10;;;;;;;6.20;5.00;;;27.60;20.20;;;;;;5054184;28;20464;-71
2023/02/15 12:23:44;;;;;;;6.33;3.40;;;27.60;19.20;;;;;;5067570;28;20440;-71
2023/02/15 12:26:12;;;;;;;6.53;4.20;;;27.60;19.40;;;;;;5074456;28;20445;-71
2023/02/15 12:28:41;;;;;;;6.33;4.37;;;27.70;19.30;;;;;;5059962;28;20441;-72
2023/02/15 12:31:19;;;;;;;7.60;4.70;;;27.70;18.70;;;;;;5053865;28;20437;-72
2023/02/15 12:33:48;;;;;;;6.23;4.13;;;27.80;19.10;;;;;;5067767;28;20519;-72
2023/02/15 12:36:19;;;;;;;4.80;3.80;;;27.90;19.00;;;;;;5062327;28;20472;-71
2023/02/15 12:39:06;;;;;;;5.50;4.03;;;27.80;19.10;;;;;;5055500;28;20445;-72
2023/02/15 12:41:34;;;;;;;8.90;4.87;;;27.70;18.80;;;;;;5053165;28;20448;-70
2023/02/15 12:44:07;;;;;;;6.30;4.30;;;27.70;19.00;;;;;;5069334;28;20428;-71
2023/02/15 12:46:34;;;;;;;5.70;4.43;;;27.70;19.30;;;;;;5067058;28;20439;-71
2023/02/15 12:49:18;;;;;;;13.67;4.93;;;27.70;19.20;;;;;;5054174;28;20491;-72
2023/02/15 12:51:50;;;;;;;5.90;4.00;;;27.60;19.20;;;;;;5054406;28;20483;-70
2023/02/15 12:54:38;;;;;;;4.73;3.50;;;27.50;19.20;;;;;;5054509;28;20445;-70
2023/02/15 12:57:32;;;;;;;4.20;3.30;;;27.50;19.50;;;;;;5054146;28;20425;-71
2023/02/15 13:00:01;;;;;;;4.80;3.50;;;27.50;19.20;;;;;;5044404;28;20499;-71
2023/02/15 13:02:36;;;;;;;5.40;3.87;;;27.50;19.20;;;;;;5054010;28;20437;-72
2023/02/15 13:05:18;;;;;;;4.83;4.17;;;27.30;19.40;;;;;;5054378;28;20433;-70
2023/02/15 13:07:50;;;;;;;7.23;3.50;;;27.30;18.90;;;;;;5054103;28;20473;-70
2023/02/15 13:10:28;;;;;;;6.93;4.37;;;27.20;19.40;;;;;;5053931;28;20519;-71
2023/02/15 13:12:57;;;;;;;5.40;4.40;;;27.00;19.30;;;;;;5054054;28;20526;-71
2023/02/15 13:15:36;;;;;;;5.33;3.80;;;26.80;19.10;;;;;;5053876;28;20441;-70
2023/02/15 13:18:05;;;;;;;10.17;4.07;;;26.70;19.40;;;;;;5053727;28;20946;-70
2023/02/15 13:20:36;;;;;;;7.50;3.60;;;26.60;19.30;;;;;;5053913;28;20487;-70
2023/02/15 13:23:06;;;;;;;12.27;4.63;;;26.50;19.10;;;;;;5053811;28;20520;-71
2023/02/15 13:25:41;;;;;;;4.60;3.90;;;26.40;19.20;;;;;;5053827;28;20469;-71